sensor_id;sensor_type;location;lat;lon;timestamp;pressure;altitude;pressure_sealevel;temperature;humidity
63019;BME280;49105;46.046;10.760;2023-02-19T00:02:09;96362.66;;;2.69;68.26
63019;BME280;49105;46.046;10.760;2023-02-19T00:04:34;96366.69;;;2.65;68.07
63019;BME280;49105;46.046;10.760;2023-02-19T00:07:00;96359.66;;;2.65;68.18
63019;BME280;49105;46.046;10.760;2023-02-19T00:09:25;96359.03;;;2.70;67.96
63019;BME280;49105;46.046;10.760;2023-02-19T00:12:00;96365.25;;;2.76;67.88
63019;BME280;49105;46.046;10.760;2023-02-19T00:14:25;96353.38;;;2.80;67.93
63019;BME280;49105;46.046;10.760;2023-02-19T00:20:13;96358.81;;;2.78;67.91
63019;BME280;49105;46.046;10.760;2023-02-19T00:22:47;96353.97;;;2.75;67.68
63019;BME280;49105;46.046;10.760;2023-02-19T00:25:22;96353.59;;;2.71;68.16
63019;BME280;49105;46.046;10.760;2023-02-19T00:27:50;96356.59;;;2.75;68.05
63019;BME280;49105;46.046;10.760;2023-02-19T00:30:25;96348.34;;;2.78;67.75
63019;BME280;49105;46.046;10.760;2023-02-19T00:32:54;96343.13;;;2.71;67.97
63019;BME280;49105;46.046;10.760;2023-02-19T00:35:26;96350.78;;;2.66;67.86
63019;BME280;49105;46.046;10.760;2023-02-19T00:37:52;96353.22;;;2.68;67.84
63019;BME280;49105;46.046;10.760;2023-02-19T00:40:17;96356.06;;;2.60;67.82
63019;BME280;49105;46.046;10.760;2023-02-19T00:42:43;96360.84;;;2.63;68.32
63019;BME280;49105;46.046;10.760;2023-02-19T00:45:08;96361.25;;;2.73;68.11
63019;BME280;49105;46.046;10.760;2023-02-19T00:47:34;96352.78;;;2.78;67.60
63019;BME280;49105;46.046;10.760;2023-02-19T00:50:04;96349.56;;;2.76;67.42
63019;BME280;49105;46.046;10.760;2023-02-19T00:52:29;96343.13;;;2.71;67.81
63019;BME280;49105;46.046;10.760;2023-02-19T00:54:55;96346.22;;;2.42;67.83
63019;BME280;49105;46.046;10.760;2023-02-19T00:57:20;96350.84;;;2.33;68.18
63019;BME280;49105;46.046;10.760;2023-02-19T00:59:48;96361.50;;;2.38;68.04
63019;BME280;49105;46.046;10.760;2023-02-19T01:02:20;96355.06;;;2.41;67.99
63019;BME280;49105;46.046;10.760;2023-02-19T01:04:49;96350.84;;;2.33;67.91
63019;BME280;49105;46.046;10.760;2023-02-19T01:07:20;96342.84;;;2.35;68.23
63019;BME280;49105;46.046;10.760;2023-02-19T01:09:51;96340.00;;;2.36;68.24
63019;BME280;49105;46.046;10.760;2023-02-19T01:12:20;96340.81;;;2.43;68.04
63019;BME280;49105;46.046;10.760;2023-02-19T01:14:45;96337.19;;;2.44;67.91
63019;BME280;49105;46.046;10.760;2023-02-19T01:17:11;96340.41;;;2.20;68.62
63019;BME280;49105;46.046;10.760;2023-02-19T01:19:46;96346.06;;;2.10;68.40
63019;BME280;49105;46.046;10.760;2023-02-19T01:22:20;96342.41;;;2.18;68.65
63019;BME280;49105;46.046;10.760;2023-02-19T01:24:55;96339.41;;;2.21;67.92
63019;BME280;49105;46.046;10.760;2023-02-19T01:27:20;96330.34;;;2.30;68.28
63019;BME280;49105;46.046;10.760;2023-02-19T01:29:55;96336.59;;;2.36;67.97
63019;BME280;49105;46.046;10.760;2023-02-19T01:32:29;96339.59;;;2.39;68.42
63019;BME280;49105;46.046;10.760;2023-02-19T01:34:55;96334.19;;;2.28;68.36
63019;BME280;49105;46.046;10.760;2023-02-19T01:37:29;96338.03;;;2.12;68.55
63019;BME280;49105;46.046;10.760;2023-02-19T01:39:55;96343.63;;;2.09;68.71
63019;BME280;49105;46.046;10.760;2023-02-19T01:42:26;96338.22;;;2.17;68.65
63019;BME280;49105;46.046;10.760;2023-02-19T01:45:18;96337.63;;;2.15;68.93
63019;BME280;49105;46.046;10.760;2023-02-19T01:48:05;96334.81;;;2.23;69.07
63019;BME280;49105;46.046;10.760;2023-02-19T01:50:37;96323.94;;;2.33;68.98
63019;BME280;49105;46.046;10.760;2023-02-19T01:53:06;96322.91;;;2.47;68.71
63019;BME280;49105;46.046;10.760;2023-02-19T01:58:51;96325.09;;;2.50;68.58
63019;BME280;49105;46.046;10.760;2023-02-19T02:01:23;96310.25;;;2.44;68.60
63019;BME280;49105;46.046;10.760;2023-02-19T02:03:49;96310.66;;;2.47;69.11
63019;BME280;49105;46.046;10.760;2023-02-19T02:06:50;96308.63;;;2.49;68.79
63019;BME280;49105;46.046;10.760;2023-02-19T02:09:15;96299.34;;;2.60;68.60
63019;BME280;49105;46.046;10.760;2023-02-19T02:12:00;96304.72;;;2.79;68.28
63019;BME280;49105;46.046;10.760;2023-02-19T02:14:37;96291.88;;;2.77;68.43
63019;BME280;49105;46.046;10.760;2023-02-19T02:22:59;96285.22;;;2.74;68.77
63019;BME280;49105;46.046;10.760;2023-02-19T02:31:37;96279.94;;;2.88;68.61
63019;BME280;49105;46.046;10.760;2023-02-19T02:34:10;96276.28;;;2.95;68.47
63019;BME280;49105;46.046;10.760;2023-02-19T02:36:50;96274.03;;;3.06;68.33
63019;BME280;49105;46.046;10.760;2023-02-19T02:39:26;96270.53;;;3.18;67.98
63019;BME280;49105;46.046;10.760;2023-02-19T02:41:59;96271.13;;;3.20;67.90
63019;BME280;49105;46.046;10.760;2023-02-19T02:44:43;96263.88;;;3.22;68.13
63019;BME280;49105;46.046;10.760;2023-02-19T02:47:37;96277.38;;;3.19;68.08
63019;BME280;49105;46.046;10.760;2023-02-19T02:50:12;96271.97;;;3.21;68.18
63019;BME280;49105;46.046;10.760;2023-02-19T02:52:39;96269.91;;;3.23;67.85
63019;BME280;49105;46.046;10.760;2023-02-19T02:55:29;96279.03;;;3.14;68.27
63019;BME280;49105;46.046;10.760;2023-02-19T02:57:55;96269.38;;;3.08;68.22
63019;BME280;49105;46.046;10.760;2023-02-19T03:00:28;96266.38;;;3.04;68.30
63019;BME280;49105;46.046;10.760;2023-02-19T03:03:17;96267.38;;;3.10;68.60
63019;BME280;49105;46.046;10.760;2023-02-19T03:05:55;96262.47;;;3.20;68.04
63019;BME280;49105;46.046;10.760;2023-02-19T03:08:44;96258.41;;;3.31;67.97
63019;BME280;49105;46.046;10.760;2023-02-19T03:11:12;96248.75;;;3.31;67.85
63019;BME280;49105;46.046;10.760;2023-02-19T03:14:24;96255.06;;;3.17;68.27
63019;BME280;49105;46.046;10.760;2023-02-19T03:17:19;96255.31;;;3.09;68.21
63019;BME280;49105;46.046;10.760;2023-02-19T03:20:07;96242.81;;;3.11;68.33
63019;BME280;49105;46.046;10.760;2023-02-19T03:22:37;96244.63;;;3.10;68.26
63019;BME280;49105;46.046;10.760;2023-02-19T03:25:20;96233.53;;;3.15;68.28
63019;BME280;49105;46.046;10.760;2023-02-19T03:28:07;96243.63;;;3.11;68.07
63019;BME280;49105;46.046;10.760;2023-02-19T03:30:49;96243.03;;;3.09;68.19
63019;BME280;49105;46.046;10.760;2023-02-19T03:33:49;96244.41;;;3.12;68.35
63019;BME280;49105;46.046;10.760;2023-02-19T03:36:17;96234.97;;;3.11;68.24
63019;BME280;49105;46.046;10.760;2023-02-19T03:39:04;96231.97;;;3.07;68.34
63019;BME280;49105;46.046;10.760;2023-02-19T03:44:24;96248.81;;;3.18;68.00
63019;BME280;49105;46.046;10.760;2023-02-19T03:47:19;96244.16;;;3.20;68.20
63019;BME280;49105;46.046;10.760;2023-02-19T03:49:55;96253.41;;;3.22;67.97
63019;BME280;49105;46.046;10.760;2023-02-19T04:00:59;96245.16;;;3.26;68.10
63019;BME280;49105;46.046;10.760;2023-02-19T04:06:01;96246.16;;;3.24;68.02
63019;BME280;49105;46.046;10.760;2023-02-19T04:08:34;96245.56;;;3.22;68.35
63019;BME280;49105;46.046;10.760;2023-02-19T04:11:02;96253.16;;;3.31;68.24
63019;BME280;49105;46.046;10.760;2023-02-19T04:14:01;96253.94;;;3.38;68.18
63019;BME280;49105;46.046;10.760;2023-02-19T04:16:31;96245.88;;;3.39;67.98
63019;BME280;49105;46.046;10.760;2023-02-19T04:19:04;96247.84;;;3.44;68.01
63019;BME280;49105;46.046;10.760;2023-02-19T04:21:32;96259.91;;;3.45;68.13
63019;BME280;49105;46.046;10.760;2023-02-19T04:24:05;96249.91;;;3.35;67.94
63019;BME280;49105;46.046;10.760;2023-02-19T04:26:34;96251.56;;;3.30;68.34
63019;BME280;49105;46.046;10.760;2023-02-19T04:29:00;96244.72;;;3.29;68.29
63019;BME280;49105;46.046;10.760;2023-02-19T04:31:27;96249.53;;;3.32;68.32
63019;BME280;49105;46.046;10.760;2023-02-19T04:34:00;96251.94;;;3.33;68.12
63019;BME280;49105;46.046;10.760;2023-02-19T04:36:26;96255.16;;;3.35;68.13
63019;BME280;49105;46.046;10.760;2023-02-19T04:39:03;96251.09;;;3.39;68.33
63019;BME280;49105;46.046;10.760;2023-02-19T04:41:32;96251.47;;;3.43;68.05
63019;BME280;49105;46.046;10.760;2023-02-19T04:43:57;96263.31;;;3.45;68.07
63019;BME280;49105;46.046;10.760;2023-02-19T04:46:35;96255.47;;;3.45;68.39
63019;BME280;49105;46.046;10.760;2023-02-19T04:49:00;96247.81;;;3.51;68.20
63019;BME280;49105;46.046;10.760;2023-02-19T04:51:26;96245.75;;;3.53;68.05
63019;BME280;49105;46.046;10.760;2023-02-19T04:53:51;96249.63;;;3.50;67.97
63019;BME280;49105;46.046;10.760;2023-02-19T04:56:26;96236.16;;;3.46;68.18
63019;BME280;49105;46.046;10.760;2023-02-19T04:58:55;96223.06;;;3.46;68.20
63019;BME280;49105;46.046;10.760;2023-02-19T05:01:30;96234.06;;;3.55;68.14
63019;BME280;49105;46.046;10.760;2023-02-19T05:03:59;96223.66;;;3.48;68.11
63019;BME280;49105;46.046;10.760;2023-02-19T05:06:27;96228.56;;;3.38;68.29
63019;BME280;49105;46.046;10.760;2023-02-19T05:08:53;96239.03;;;3.38;68.44
63019;BME280;49105;46.046;10.760;2023-02-19T05:11:37;96222.47;;;3.44;68.28
63019;BME280;49105;46.046;10.760;2023-02-19T05:14:05;96216.81;;;3.47;68.28
63019;BME280;49105;46.046;10.760;2023-02-19T05:16:33;96223.47;;;3.50;68.30
63019;BME280;49105;46.046;10.760;2023-02-19T05:19:05;96218.00;;;3.52;68.15
63019;BME280;49105;46.046;10.760;2023-02-19T05:21:37;96211.75;;;3.53;68.37
63019;BME280;49105;46.046;10.760;2023-02-19T05:24:07;96216.19;;;3.52;68.03
63019;BME280;49105;46.046;10.760;2023-02-19T05:26:33;96208.38;;;3.45;68.39
63019;BME280;49105;46.046;10.760;2023-02-19T05:28:59;96199.19;;;3.36;68.48
63019;BME280;49105;46.046;10.760;2023-02-19T05:31:31;96197.97;;;3.39;68.54
63019;BME280;49105;46.046;10.760;2023-02-19T05:33:59;96201.53;;;3.44;68.23
63019;BME280;49105;46.046;10.760;2023-02-19T05:36:34;96201.69;;;3.49;68.29
63019;BME280;49105;46.046;10.760;2023-02-19T05:39:01;96205.13;;;3.50;68.24
63019;BME280;49105;46.046;10.760;2023-02-19T05:41:28;96200.63;;;3.57;68.22
63019;BME280;49105;46.046;10.760;2023-02-19T05:44:01;96197.53;;;3.67;68.04
63019;BME280;49105;46.046;10.760;2023-02-19T05:46:28;96193.91;;;3.68;67.53
63019;BME280;49105;46.046;10.760;2023-02-19T05:48:54;96188.94;;;3.60;67.64
63019;BME280;49105;46.046;10.760;2023-02-19T05:51:32;96195.47;;;3.51;68.06
63019;BME280;49105;46.046;10.760;2023-02-19T05:54:04;96197.91;;;3.45;68.39
63019;BME280;49105;46.046;10.760;2023-02-19T05:56:48;96195.47;;;3.51;68.33
63019;BME280;49105;46.046;10.760;2023-02-19T05:59:20;96209.13;;;3.53;68.40
63019;BME280;49105;46.046;10.760;2023-02-19T06:01:48;96213.59;;;3.45;68.41
63019;BME280;49105;46.046;10.760;2023-02-19T06:04:14;96193.22;;;3.54;68.21
63019;BME280;49105;46.046;10.760;2023-02-19T06:06:40;96191.13;;;3.63;68.22
63019;BME280;49105;46.046;10.760;2023-02-19T06:09:07;96185.44;;;3.66;68.31
63019;BME280;49105;46.046;10.760;2023-02-19T06:11:32;96180.41;;;3.71;68.21
63019;BME280;49105;46.046;10.760;2023-02-19T06:13:58;96188.03;;;3.72;68.05
63019;BME280;49105;46.046;10.760;2023-02-19T06:16:33;96190.81;;;3.53;68.57
63019;BME280;49105;46.046;10.760;2023-02-19T06:19:02;96192.31;;;3.42;68.85
63019;BME280;49105;46.046;10.760;2023-02-19T06:21:28;96187.28;;;3.40;68.85
63019;BME280;49105;46.046;10.760;2023-02-19T06:24:03;96207.41;;;3.40;68.92
63019;BME280;49105;46.046;10.760;2023-02-19T06:26:37;96178.78;;;3.45;68.94
63019;BME280;49105;46.046;10.760;2023-02-19T06:29:03;96190.00;;;3.52;68.64
63019;BME280;49105;46.046;10.760;2023-02-19T06:31:37;96188.34;;;3.58;68.67
63019;BME280;49105;46.046;10.760;2023-02-19T06:34:03;96196.19;;;3.58;68.95
63019;BME280;49105;46.046;10.760;2023-02-19T06:36:35;96195.34;;;3.64;68.85
63019;BME280;49105;46.046;10.760;2023-02-19T06:39:06;96202.19;;;3.65;68.86
63019;BME280;49105;46.046;10.760;2023-02-19T06:41:41;96208.44;;;3.64;68.96
63019;BME280;49105;46.046;10.760;2023-02-19T06:44:18;96211.47;;;3.61;69.00
63019;BME280;49105;46.046;10.760;2023-02-19T06:50:05;96200.06;;;3.55;68.98
63019;BME280;49105;46.046;10.760;2023-02-19T06:52:31;96198.81;;;3.58;69.12
63019;BME280;49105;46.046;10.760;2023-02-19T06:54:57;96199.72;;;3.70;68.91
63019;BME280;49105;46.046;10.760;2023-02-19T06:57:31;96187.75;;;3.81;68.73
63019;BME280;49105;46.046;10.760;2023-02-19T06:59:57;96194.53;;;3.88;68.70
63019;BME280;49105;46.046;10.760;2023-02-19T07:02:23;96203.97;;;3.89;68.36
63019;BME280;49105;46.046;10.760;2023-02-19T07:04:58;96197.19;;;3.82;68.59
63019;BME280;49105;46.046;10.760;2023-02-19T07:07:24;96198.59;;;3.84;68.61
63019;BME280;49105;46.046;10.760;2023-02-19T07:09:49;96203.19;;;3.89;68.58
63019;BME280;49105;46.046;10.760;2023-02-19T07:12:24;96197.72;;;3.90;68.58
63019;BME280;49105;46.046;10.760;2023-02-19T07:15:02;96198.88;;;3.94;68.87
63019;BME280;49105;46.046;10.760;2023-02-19T07:17:36;96199.84;;;4.00;68.58
63019;BME280;49105;46.046;10.760;2023-02-19T07:20:08;96207.44;;;4.08;68.40
63019;BME280;49105;46.046;10.760;2023-02-19T07:22:33;96182.47;;;4.06;68.35
63019;BME280;49105;46.046;10.760;2023-02-19T07:25:05;96185.97;;;4.00;68.20
63019;BME280;49105;46.046;10.760;2023-02-19T07:27:42;96200.69;;;3.94;68.71
63019;BME280;49105;46.046;10.760;2023-02-19T07:30:15;96185.44;;;3.91;68.66
63019;BME280;49105;46.046;10.760;2023-02-19T07:32:46;96189.00;;;3.96;68.68
63019;BME280;49105;46.046;10.760;2023-02-19T07:35:13;96189.75;;;4.04;68.54
63019;BME280;49105;46.046;10.760;2023-02-19T07:37:41;96190.31;;;4.06;68.40
63019;BME280;49105;46.046;10.760;2023-02-19T07:40:10;96183.06;;;4.08;68.56
63019;BME280;49105;46.046;10.760;2023-02-19T07:42:44;96189.22;;;4.13;68.26
63019;BME280;49105;46.046;10.760;2023-02-19T07:45:19;96186.19;;;4.16;68.32
63019;BME280;49105;46.046;10.760;2023-02-19T07:47:50;96173.66;;;4.18;68.45
63019;BME280;49105;46.046;10.760;2023-02-19T07:50:16;96175.97;;;4.27;68.18
63019;BME280;49105;46.046;10.760;2023-02-19T07:52:54;96176.94;;;4.32;68.16
63019;BME280;49105;46.046;10.760;2023-02-19T07:55:20;96192.50;;;4.45;68.13
63019;BME280;49105;46.046;10.760;2023-02-19T07:57:46;96188.31;;;4.56;67.51
63019;BME280;49105;46.046;10.760;2023-02-19T08:00:24;96191.53;;;4.58;67.71
63019;BME280;49105;46.046;10.760;2023-02-19T08:02:51;96192.09;;;4.60;67.55
63019;BME280;49105;46.046;10.760;2023-02-19T08:05:33;96196.78;;;4.58;67.83
63019;BME280;49105;46.046;10.760;2023-02-19T08:08:15;96197.22;;;4.55;67.58
63019;BME280;49105;46.046;10.760;2023-02-19T08:10:41;96185.50;;;4.58;67.79
63019;BME280;49105;46.046;10.760;2023-02-19T08:13:29;96195.31;;;4.62;67.97
63019;BME280;49105;46.046;10.760;2023-02-19T08:18:28;96183.28;;;4.73;67.48
63019;BME280;49105;46.046;10.760;2023-02-19T08:21:03;96182.16;;;4.81;67.40
63019;BME280;49105;46.046;10.760;2023-02-19T08:26:51;96181.50;;;4.85;67.02
63019;BME280;49105;46.046;10.760;2023-02-19T08:29:16;96183.91;;;4.87;67.43
63019;BME280;49105;46.046;10.760;2023-02-19T08:31:54;96182.44;;;4.91;67.04
63019;BME280;49105;46.046;10.760;2023-02-19T08:34:19;96185.56;;;5.00;67.04
63019;BME280;49105;46.046;10.760;2023-02-19T08:36:54;96180.00;;;5.08;66.76
63019;BME280;49105;46.046;10.760;2023-02-19T08:39:26;96171.44;;;5.12;66.76
63019;BME280;49105;46.046;10.760;2023-02-19T08:42:00;96167.69;;;5.20;66.55
63019;BME280;49105;46.046;10.760;2023-02-19T08:44:29;96166.47;;;5.22;66.57
63019;BME280;49105;46.046;10.760;2023-02-19T08:46:54;96164.41;;;5.25;66.67
63019;BME280;49105;46.046;10.760;2023-02-19T08:49:29;96173.66;;;5.27;67.01
63019;BME280;49105;46.046;10.760;2023-02-19T08:51:54;96165.09;;;5.32;66.69
63019;BME280;49105;46.046;10.760;2023-02-19T08:54:26;96157.91;;;5.27;66.10
63019;BME280;49105;46.046;10.760;2023-02-19T08:56:57;96175.59;;;5.32;66.25
63019;BME280;49105;46.046;10.760;2023-02-19T08:59:23;96166.81;;;5.38;66.17
63019;BME280;49105;46.046;10.760;2023-02-19T09:01:48;96153.25;;;5.41;66.22
63019;BME280;49105;46.046;10.760;2023-02-19T09:04:20;96166.59;;;5.39;66.08
63019;BME280;49105;46.046;10.760;2023-02-19T09:06:45;96162.94;;;5.40;65.93
63019;BME280;49105;46.046;10.760;2023-02-19T09:09:10;96150.84;;;5.39;66.27
63019;BME280;49105;46.046;10.760;2023-02-19T09:11:39;96166.13;;;5.42;65.89
63019;BME280;49105;46.046;10.760;2023-02-19T09:14:17;96151.53;;;5.46;65.83
63019;BME280;49105;46.046;10.760;2023-02-19T09:16:42;96161.00;;;5.47;65.71
63019;BME280;49105;46.046;10.760;2023-02-19T09:19:08;96166.03;;;5.49;65.74
63019;BME280;49105;46.046;10.760;2023-02-19T09:21:41;96163.16;;;5.51;65.67
63019;BME280;49105;46.046;10.760;2023-02-19T09:24:08;96155.88;;;5.53;65.85
63019;BME280;49105;46.046;10.760;2023-02-19T09:26:33;96155.53;;;5.49;65.80
63019;BME280;49105;46.046;10.760;2023-02-19T09:29:07;96165.22;;;5.48;65.89
63019;BME280;49105;46.046;10.760;2023-02-19T09:31:39;96164.19;;;5.50;66.04
63019;BME280;49105;46.046;10.760;2023-02-19T09:34:05;96164.78;;;5.52;66.28
63019;BME280;49105;46.046;10.760;2023-02-19T09:36:30;96175.41;;;5.57;65.90
63019;BME280;49105;46.046;10.760;2023-02-19T09:39:04;96167.06;;;5.60;66.11
63019;BME280;49105;46.046;10.760;2023-02-19T09:41:42;96164.91;;;5.68;65.93
63019;BME280;49105;46.046;10.760;2023-02-19T09:44:28;96150.63;;;5.76;65.92
63019;BME280;49105;46.046;10.760;2023-02-19T09:46:55;96150.28;;;5.84;65.55
63019;BME280;49105;46.046;10.760;2023-02-19T09:49:39;96158.97;;;5.96;65.13
63019;BME280;49105;46.046;10.760;2023-02-19T09:54:36;96143.78;;;5.99;64.81
63019;BME280;49105;46.046;10.760;2023-02-19T09:57:03;96153.03;;;6.01;64.83
63019;BME280;49105;46.046;10.760;2023-02-19T09:59:57;96140.91;;;6.12;65.08
63019;BME280;49105;46.046;10.760;2023-02-19T10:02:42;96135.63;;;6.24;64.59
63019;BME280;49105;46.046;10.760;2023-02-19T10:05:15;96136.06;;;6.32;64.57
63019;BME280;49105;46.046;10.760;2023-02-19T10:07:51;96127.47;;;6.37;64.30
63019;BME280;49105;46.046;10.760;2023-02-19T10:10:21;96124.97;;;6.42;64.45
63019;BME280;49105;46.046;10.760;2023-02-19T10:13:21;96116.69;;;6.50;64.20
63019;BME280;49105;46.046;10.760;2023-02-19T10:15:53;96127.63;;;6.59;63.95
63019;BME280;49105;46.046;10.760;2023-02-19T10:18:30;96120.97;;;6.68;63.97
63019;BME280;49105;46.046;10.760;2023-02-19T10:20:59;96126.06;;;6.75;63.75
63019;BME280;49105;46.046;10.760;2023-02-19T10:23:25;96131.19;;;6.81;63.38
63019;BME280;49105;46.046;10.760;2023-02-19T10:25:58;96122.13;;;6.89;63.70
63019;BME280;49105;46.046;10.760;2023-02-19T10:28:37;96115.09;;;6.94;63.50
63019;BME280;49105;46.046;10.760;2023-02-19T10:31:31;96124.69;;;7.01;63.42
63019;BME280;49105;46.046;10.760;2023-02-19T10:33:59;96114.25;;;7.06;63.11
63019;BME280;49105;46.046;10.760;2023-02-19T10:36:35;96111.22;;;7.14;63.01
63019;BME280;49105;46.046;10.760;2023-02-19T10:41:55;96107.16;;;7.23;62.92
63019;BME280;49105;46.046;10.760;2023-02-19T10:44:34;96096.69;;;7.28;62.95
63019;BME280;49105;46.046;10.760;2023-02-19T10:47:05;96092.00;;;7.30;62.75
63019;BME280;49105;46.046;10.760;2023-02-19T10:49:34;96101.00;;;7.34;62.88
63019;BME280;49105;46.046;10.760;2023-02-19T10:52:25;96093.50;;;7.43;62.78
63019;BME280;49105;46.046;10.760;2023-02-19T10:54:55;96086.56;;;7.54;62.69
63019;BME280;49105;46.046;10.760;2023-02-19T10:57:30;96079.50;;;7.59;62.54
63019;BME280;49105;46.046;10.760;2023-02-19T11:02:44;96083.47;;;7.79;62.22
63019;BME280;49105;46.046;10.760;2023-02-19T11:05:19;96078.56;;;7.87;62.33
63019;BME280;49105;46.046;10.760;2023-02-19T11:08:02;96079.19;;;7.94;62.15
63019;BME280;49105;46.046;10.760;2023-02-19T11:10:46;96070.78;;;7.97;62.16
63019;BME280;49105;46.046;10.760;2023-02-19T11:13:30;96050.31;;;8.05;62.36
63019;BME280;49105;46.046;10.760;2023-02-19T11:15:57;96054.09;;;8.14;62.12
63019;BME280;49105;46.046;10.760;2023-02-19T11:18:29;96046.56;;;8.23;61.96
63019;BME280;49105;46.046;10.760;2023-02-19T11:20:58;96045.97;;;8.37;61.92
63019;BME280;49105;46.046;10.760;2023-02-19T11:23:34;96053.19;;;8.47;62.28
63019;BME280;49105;46.046;10.760;2023-02-19T11:26:17;96032.38;;;8.51;62.26
63019;BME280;49105;46.046;10.760;2023-02-19T11:28:43;96037.16;;;8.54;61.98
63019;BME280;49105;46.046;10.760;2023-02-19T11:36:34;96022.25;;;8.64;61.64
63019;BME280;49105;46.046;10.760;2023-02-19T11:39:31;96020.44;;;8.70;61.38
63019;BME280;49105;46.046;10.760;2023-02-19T11:42:13;96010.69;;;8.76;61.39
63019;BME280;49105;46.046;10.760;2023-02-19T11:50:38;96005.38;;;9.03;61.36
63019;BME280;49105;46.046;10.760;2023-02-19T11:53:27;96000.69;;;9.10;61.35
63019;BME280;49105;46.046;10.760;2023-02-19T12:12:42;95966.25;;;9.42;60.64
63019;BME280;49105;46.046;10.760;2023-02-19T12:18:26;95964.97;;;9.50;60.29
63019;BME280;49105;46.046;10.760;2023-02-19T12:21:22;95955.53;;;9.59;60.56
63019;BME280;49105;46.046;10.760;2023-02-19T12:32:51;95928.41;;;9.94;59.58
63019;BME280;49105;46.046;10.760;2023-02-19T12:35:37;95928.44;;;10.04;59.32
63019;BME280;49105;46.046;10.760;2023-02-19T12:41:39;95918.66;;;10.05;59.25
63019;BME280;49105;46.046;10.760;2023-02-19T12:44:17;95912.31;;;10.11;59.31
63019;BME280;49105;46.046;10.760;2023-02-19T12:46:53;95902.53;;;10.16;59.00
63019;BME280;49105;46.046;10.760;2023-02-19T12:49:29;95904.91;;;10.23;59.65
63019;BME280;49105;46.046;10.760;2023-02-19T12:52:02;95894.13;;;10.30;59.62
63019;BME280;49105;46.046;10.760;2023-02-19T12:54:46;95890.16;;;10.37;58.88
63019;BME280;49105;46.046;10.760;2023-02-19T12:57:15;95895.16;;;10.44;58.46
63019;BME280;49105;46.046;10.760;2023-02-19T13:00:24;95899.94;;;10.47;58.17
63019;BME280;49105;46.046;10.760;2023-02-19T13:11:19;95896.50;;;10.67;57.95
63019;BME280;49105;46.046;10.760;2023-02-19T13:14:13;95887.47;;;10.73;57.69
63019;BME280;49105;46.046;10.760;2023-02-19T13:20:34;95866.28;;;10.83;57.84
63019;BME280;49105;46.046;10.760;2023-02-19T13:23:20;95866.00;;;10.90;57.08
63019;BME280;49105;46.046;10.760;2023-02-19T13:34:47;95842.34;;;11.19;56.77
63019;BME280;49105;46.046;10.760;2023-02-19T13:37:16;95842.09;;;11.21;56.92
63019;BME280;49105;46.046;10.760;2023-02-19T13:39:53;95841.81;;;11.22;57.04
63019;BME280;49105;46.046;10.760;2023-02-19T13:42:33;95838.09;;;11.23;56.81
63019;BME280;49105;46.046;10.760;2023-02-19T13:45:00;95841.25;;;11.25;56.84
63019;BME280;49105;46.046;10.760;2023-02-19T13:47:58;95841.53;;;11.29;56.28
63019;BME280;49105;46.046;10.760;2023-02-19T13:50:31;95835.44;;;11.28;56.08
63019;BME280;49105;46.046;10.760;2023-02-19T14:04:25;95827.97;;;11.35;55.26
63019;BME280;49105;46.046;10.760;2023-02-19T14:14:49;95821.63;;;11.36;54.07
63019;BME280;49105;46.046;10.760;2023-02-19T14:23:12;95809.94;;;11.37;54.15
63019;BME280;49105;46.046;10.760;2023-02-19T14:25:44;95816.03;;;11.38;54.63
63019;BME280;49105;46.046;10.760;2023-02-19T14:33:43;95828.78;;;11.36;53.39
63019;BME280;49105;46.046;10.760;2023-02-19T14:39:26;95838.00;;;11.43;53.39
63019;BME280;49105;46.046;10.760;2023-02-19T14:42:21;95843.84;;;11.40;53.46
63019;BME280;49105;46.046;10.760;2023-02-19T14:44:59;95835.66;;;11.37;53.54
63019;BME280;49105;46.046;10.760;2023-02-19T14:47:27;95833.53;;;11.34;53.46
63019;BME280;49105;46.046;10.760;2023-02-19T14:50:03;95836.47;;;11.32;53.43
63019;BME280;49105;46.046;10.760;2023-02-19T14:55:51;95837.28;;;11.28;53.62
63019;BME280;49105;46.046;10.760;2023-02-19T14:58:31;95840.72;;;11.28;53.19
63019;BME280;49105;46.046;10.760;2023-02-19T15:01:06;95834.88;;;11.31;53.53
63019;BME280;49105;46.046;10.760;2023-02-19T15:03:53;95849.47;;;11.29;53.36
63019;BME280;49105;46.046;10.760;2023-02-19T15:06:18;95848.41;;;11.30;53.37
63019;BME280;49105;46.046;10.760;2023-02-19T15:08:47;95854.75;;;11.34;53.05
63019;BME280;49105;46.046;10.760;2023-02-19T15:11:18;95858.72;;;11.36;52.77
63019;BME280;49105;46.046;10.760;2023-02-19T15:13:59;95866.41;;;11.33;52.88
63019;BME280;49105;46.046;10.760;2023-02-19T15:16:38;95862.44;;;11.30;52.94
63019;BME280;49105;46.046;10.760;2023-02-19T15:19:06;95859.78;;;11.30;53.05
63019;BME280;49105;46.046;10.760;2023-02-19T15:21:46;95858.22;;;11.29;53.19
63019;BME280;49105;46.046;10.760;2023-02-19T15:24:20;95865.41;;;11.24;53.24
63019;BME280;49105;46.046;10.760;2023-02-19T15:26:55;95861.94;;;11.18;53.48
63019;BME280;49105;46.046;10.760;2023-02-19T15:29:23;95863.03;;;11.12;53.43
63019;BME280;49105;46.046;10.760;2023-02-19T15:31:53;95880.78;;;11.06;53.53
63019;BME280;49105;46.046;10.760;2023-02-19T15:34:27;95885.59;;;10.99;53.89
63019;BME280;49105;46.046;10.760;2023-02-19T15:37:04;95889.06;;;10.95;54.22
63019;BME280;49105;46.046;10.760;2023-02-19T15:39:38;95876.06;;;10.88;54.38
63019;BME280;49105;46.046;10.760;2023-02-19T15:42:19;95877.41;;;10.85;54.11
63019;BME280;49105;46.046;10.760;2023-02-19T15:45:06;95886.94;;;10.81;54.47
63019;BME280;49105;46.046;10.760;2023-02-19T15:50:17;95890.66;;;10.65;55.35
63019;BME280;49105;46.046;10.760;2023-02-19T16:03:25;95883.22;;;10.11;55.92
63019;BME280;49105;46.046;10.760;2023-02-19T16:08:39;95896.41;;;9.90;57.15
63019;BME280;49105;46.046;10.760;2023-02-19T16:11:25;95909.06;;;9.83;57.20
63019;BME280;49105;46.046;10.760;2023-02-19T16:13:52;95907.19;;;9.74;57.94
63019;BME280;49105;46.046;10.760;2023-02-19T16:16:39;95910.63;;;9.74;57.76
63019;BME280;49105;46.046;10.760;2023-02-19T16:19:05;95915.91;;;9.69;57.80